createdAt,value
2017-12-22T15:01:45.777Z,-40.00
2017-12-22T15:05:38.986Z,-40.00
2017-12-22T15:07:32.111Z,-40.00
2017-12-22T15:27:08.347Z,15.19
2017-12-22T15:28:08.363Z,13.88
2017-12-22T15:30:01.293Z,11.49
2017-12-22T15:31:01.314Z,10.63
2017-12-22T15:32:54.202Z,9.64
2017-12-22T15:33:54.207Z,9.10
2017-12-22T15:35:48.166Z,8.26
2017-12-22T15:36:48.161Z,7.93
2017-12-22T15:38:41.600Z,7.61
2017-12-22T15:39:41.591Z,7.57
2017-12-22T15:41:34.520Z,7.28
2017-12-22T15:42:34.516Z,7.27
2017-12-22T15:44:27.635Z,7.09
2017-12-22T15:45:27.434Z,6.92
2017-12-22T15:47:20.341Z,6.87
2017-12-22T15:48:20.358Z,6.73
2017-12-22T15:50:13.277Z,6.67
2017-12-22T15:51:13.288Z,6.62
2017-12-22T15:53:06.223Z,6.56
2017-12-22T15:54:06.203Z,6.56
2017-12-22T15:55:59.170Z,6.49
2017-12-22T15:56:59.122Z,6.40
2017-12-22T15:58:52.055Z,6.41
2017-12-22T15:59:52.039Z,6.43
2017-12-22T16:01:44.955Z,6.37
2017-12-22T16:02:44.957Z,6.38
2017-12-22T16:04:37.872Z,6.37
2017-12-22T16:05:37.872Z,6.27
2017-12-22T16:07:31.032Z,6.25
2017-12-22T16:08:31.023Z,6.30
2017-12-22T16:10:23.973Z,6.30
2017-12-22T16:11:23.958Z,6.28
2017-12-22T16:13:16.864Z,6.28
2017-12-22T16:14:16.879Z,6.28
2017-12-22T16:16:09.847Z,6.17
2017-12-22T16:17:09.795Z,6.17
2017-12-22T16:19:02.689Z,6.22
2017-12-22T16:20:02.703Z,6.18
2017-12-22T16:21:55.639Z,6.17
2017-12-22T16:22:55.615Z,6.15
2017-12-22T16:24:48.530Z,5.99
2017-12-22T16:25:48.542Z,5.99
2017-12-22T16:27:41.557Z,5.96
2017-12-22T16:28:41.462Z,5.94
2017-12-22T16:30:34.364Z,5.85
2017-12-22T16:31:34.376Z,5.89
2017-12-22T16:33:27.293Z,5.82
2017-12-22T16:34:27.286Z,5.83
2017-12-22T16:36:20.495Z,5.72
2017-12-22T16:37:20.491Z,5.76
2017-12-22T16:39:13.432Z,5.64
2017-12-22T16:40:13.414Z,5.65
2017-12-22T16:42:06.342Z,5.68
2017-12-22T16:43:06.333Z,5.74
2017-12-22T16:44:59.241Z,5.65
2017-12-22T16:45:59.240Z,5.57
2017-12-22T16:47:52.149Z,5.45
2017-12-22T16:48:52.153Z,5.46
2017-12-22T16:50:45.089Z,5.43
2017-12-22T16:51:45.067Z,5.46
2017-12-22T16:53:37.975Z,5.40
2017-12-22T16:54:37.988Z,5.40
2017-12-22T16:56:30.910Z,5.30
2017-12-22T16:57:30.917Z,5.35
2017-12-22T16:59:23.811Z,5.33
2017-12-22T17:00:23.824Z,5.33
2017-12-22T17:02:16.740Z,5.24
2017-12-22T17:03:16.741Z,5.20
2017-12-22T17:05:09.635Z,5.27
2017-12-22T17:06:09.647Z,5.10
2017-12-22T17:08:02.568Z,5.12
2017-12-22T17:09:02.580Z,5.17
2017-12-22T17:10:55.472Z,5.22
2017-12-22T17:11:55.601Z,5.17
2017-12-22T17:13:48.406Z,5.25
2017-12-22T17:14:48.399Z,5.17
2017-12-22T17:16:41.298Z,5.25
2017-12-22T17:17:41.316Z,5.20
2017-12-22T17:19:34.740Z,5.15
2017-12-22T17:20:34.729Z,5.18
2017-12-22T17:22:27.634Z,5.12
2017-12-22T17:23:27.643Z,5.17
2017-12-22T17:25:20.680Z,5.20
2017-12-22T17:26:20.680Z,5.30
2017-12-22T17:28:13.615Z,5.21
2017-12-22T17:29:13.600Z,5.24
2017-12-22T17:31:06.528Z,5.27
2017-12-22T17:32:06.552Z,5.31
2017-12-22T17:33:59.581Z,5.36
2017-12-22T17:34:59.506Z,5.30
2017-12-22T17:36:52.369Z,5.31
2017-12-22T17:37:52.386Z,5.36
2017-12-22T17:39:45.314Z,5.25
2017-12-22T17:40:45.298Z,5.39
2017-12-22T17:42:38.211Z,5.25
2017-12-22T17:43:38.232Z,5.43
2017-12-22T17:45:31.134Z,5.39
2017-12-22T17:46:31.146Z,5.36
2017-12-22T17:48:24.029Z,5.27
2017-12-22T17:49:24.050Z,5.38
2017-12-22T17:51:16.955Z,5.39
2017-12-22T17:52:16.958Z,5.27
2017-12-22T17:54:10.375Z,5.25
2017-12-22T17:55:10.343Z,5.24
2017-12-22T17:57:03.778Z,5.30
2017-12-22T17:58:03.762Z,5.27
2017-12-22T17:59:56.666Z,5.15
2017-12-22T18:00:56.683Z,5.27
2017-12-22T18:02:49.594Z,5.15
2017-12-22T18:03:49.599Z,5.13
2017-12-22T18:05:42.515Z,5.22
2017-12-22T18:06:42.517Z,5.22
2017-12-22T18:08:35.440Z,5.12
2017-12-22T18:09:35.453Z,5.10
2017-12-22T18:11:28.363Z,5.12
2017-12-22T18:12:28.369Z,5.17
2017-12-22T18:14:21.274Z,5.09
2017-12-22T18:15:21.282Z,5.04
2017-12-22T18:17:14.191Z,5.09
2017-12-22T18:18:14.211Z,5.09
2017-12-22T18:20:07.130Z,4.99
2017-12-22T18:21:07.121Z,5.04
2017-12-22T18:23:00.017Z,4.99
2017-12-22T18:24:00.030Z,5.04
2017-12-22T18:25:52.936Z,5.03
2017-12-22T18:26:52.937Z,5.03
2017-12-22T18:28:45.855Z,5.06
2017-12-22T18:29:45.868Z,5.10
2017-12-22T18:31:39.289Z,5.06
2017-12-22T18:32:39.283Z,5.00
2017-12-22T18:34:32.185Z,5.12
2017-12-22T18:35:32.203Z,5.09
2017-12-22T18:37:25.169Z,5.07
2017-12-22T18:38:25.167Z,5.06
2017-12-22T18:40:18.146Z,5.06
2017-12-22T18:41:18.154Z,5.06
2017-12-22T18:43:11.646Z,5.09
2017-12-22T18:44:11.609Z,5.09
2017-12-22T18:46:04.503Z,5.06
2017-12-22T18:47:04.518Z,5.03
2017-12-22T18:48:57.456Z,5.02
2017-12-22T18:49:57.449Z,4.96
2017-12-22T18:51:50.355Z,4.94
2017-12-22T18:52:50.372Z,4.94
2017-12-22T18:54:43.849Z,4.88
2017-12-22T18:55:43.503Z,4.99
2017-12-22T18:57:36.414Z,5.06
2017-12-22T18:58:36.430Z,5.04
2017-12-22T19:00:29.364Z,5.12
2017-12-22T19:01:29.345Z,5.12
2017-12-22T19:03:22.255Z,5.12
2017-12-22T19:04:22.262Z,5.12
2017-12-22T19:06:15.179Z,5.10
2017-12-22T19:07:15.181Z,5.09
2017-12-22T19:09:08.244Z,5.06
2017-12-22T19:10:08.213Z,5.10
2017-12-22T19:12:01.126Z,5.17
2017-12-22T19:13:01.126Z,5.22
2017-12-22T19:14:54.063Z,5.13
2017-12-22T19:15:54.057Z,5.21
2017-12-22T19:17:46.947Z,5.18
2017-12-22T19:18:46.967Z,5.13
2017-12-22T19:20:39.867Z,5.24
2017-12-22T19:21:39.881Z,5.12
2017-12-22T19:23:32.944Z,5.22
2017-12-22T19:24:33.008Z,5.21
2017-12-22T19:26:25.883Z,5.18
2017-12-22T19:27:25.879Z,5.12
2017-12-22T19:29:18.793Z,5.25
2017-12-22T19:30:18.797Z,5.21
2017-12-22T19:32:11.710Z,5.22
2017-12-22T19:33:11.738Z,5.20
2017-12-22T19:35:04.618Z,5.25
2017-12-22T19:36:04.625Z,5.17
2017-12-22T19:39:30.433Z,5.20
2017-12-22T19:40:30.422Z,5.17
2017-12-22T19:42:23.317Z,5.15
2017-12-22T19:43:23.330Z,5.13
2017-12-22T19:45:16.596Z,5.18
2017-12-22T19:46:16.246Z,5.12
2017-12-22T19:48:09.220Z,5.12
2017-12-22T19:49:09.209Z,5.04
2017-12-22T19:51:02.158Z,5.02
2017-12-22T19:52:02.166Z,5.13
2017-12-22T19:53:55.119Z,5.30
2017-12-22T19:54:55.084Z,5.28
2017-12-22T19:56:48.015Z,5.36
2017-12-22T19:57:48.023Z,5.39
2017-12-22T19:59:40.957Z,5.51
2017-12-22T20:00:40.958Z,5.58
2017-12-22T20:02:33.974Z,5.61
2017-12-22T20:03:33.982Z,5.49
2017-12-22T20:05:26.895Z,5.46
2017-12-22T20:06:26.896Z,5.57
2017-12-22T20:08:19.802Z,5.46
2017-12-22T20:09:19.812Z,5.43
2017-12-22T20:11:13.241Z,5.56
2017-12-22T20:12:13.246Z,5.45
2017-12-22T20:14:06.206Z,5.51
2017-12-22T20:15:06.155Z,5.63
2017-12-22T20:16:59.076Z,5.49
2017-12-22T20:17:59.083Z,5.63
2017-12-22T20:19:57.368Z,5.45
2017-12-22T20:20:57.338Z,5.53
2017-12-22T20:22:50.246Z,5.57
2017-12-22T20:23:50.260Z,5.45
2017-12-22T20:25:43.172Z,5.49
2017-12-22T20:26:43.173Z,5.39
2017-12-22T20:28:36.076Z,5.42
2017-12-22T20:29:36.094Z,5.43
2017-12-22T20:31:29.138Z,5.43
2017-12-22T20:32:29.025Z,5.51
2017-12-22T20:34:21.908Z,5.35
2017-12-22T20:35:21.920Z,5.38
2017-12-22T20:37:14.886Z,5.42
2017-12-22T20:38:14.839Z,5.27
2017-12-22T20:40:07.743Z,5.27
2017-12-22T20:41:07.753Z,5.31
2017-12-22T20:43:00.672Z,5.33
2017-12-22T20:44:00.664Z,5.28
2017-12-22T20:45:53.561Z,5.33
2017-12-22T20:46:53.613Z,5.25
2017-12-22T20:48:46.495Z,5.36
2017-12-22T20:49:46.510Z,5.33
2017-12-22T20:51:39.432Z,5.24
2017-12-22T20:52:39.433Z,5.22
2017-12-22T20:54:32.340Z,5.22
2017-12-22T20:55:32.381Z,5.25
2017-12-22T20:57:25.301Z,5.38
2017-12-22T20:58:25.279Z,5.27
2017-12-22T21:00:18.161Z,5.28
2017-12-22T21:01:18.190Z,5.22
2017-12-22T21:03:11.105Z,5.36
2017-12-22T21:04:11.115Z,5.24
2017-12-22T21:06:04.022Z,5.42
2017-12-22T21:07:04.119Z,5.43
2017-12-22T21:08:56.984Z,5.28
2017-12-22T21:09:56.935Z,5.40
2017-12-22T21:11:49.841Z,5.40
2017-12-22T21:12:49.853Z,5.48
2017-12-22T21:14:42.803Z,5.48
2017-12-22T21:15:42.799Z,5.54
2017-12-22T21:17:35.883Z,5.53
2017-12-22T21:18:35.886Z,5.49
2017-12-22T21:20:28.861Z,5.48
2017-12-22T21:21:28.799Z,5.54
2017-12-22T21:23:22.647Z,5.60
2017-12-22T21:24:22.662Z,5.61
2017-12-22T21:26:16.146Z,5.68
2017-12-22T21:27:16.156Z,5.64
2017-12-22T21:29:09.092Z,5.64
2017-12-22T21:30:09.099Z,5.67
2017-12-22T21:32:02.036Z,5.61
2017-12-22T21:33:02.006Z,5.67
2017-12-22T21:34:54.987Z,5.65
2017-12-22T21:35:54.993Z,5.68
2017-12-22T21:37:47.958Z,5.68
2017-12-22T21:38:47.910Z,5.60
2017-12-22T21:40:40.838Z,5.74
2017-12-22T21:41:41.348Z,5.71
2017-12-22T21:43:33.730Z,5.71
2017-12-22T21:44:33.732Z,5.82
2017-12-22T21:46:27.000Z,5.75
2017-12-22T21:47:26.689Z,5.81
2017-12-22T21:49:19.556Z,5.81
2017-12-22T21:50:19.575Z,5.76
2017-12-22T21:52:12.506Z,5.83
2017-12-22T21:53:12.485Z,5.89
2017-12-22T21:55:06.466Z,5.82
2017-12-22T21:56:06.441Z,5.85
2017-12-22T21:57:59.303Z,5.85
2017-12-22T21:58:59.316Z,5.79
2017-12-22T22:00:52.373Z,5.75
2017-12-22T22:01:52.383Z,5.82
2017-12-22T22:03:45.287Z,5.82
2017-12-22T22:04:45.299Z,5.81
2017-12-22T22:06:38.220Z,5.86
2017-12-22T22:07:38.321Z,5.82
2017-12-22T22:09:31.398Z,5.93
2017-12-22T22:10:31.383Z,5.89
2017-12-22T22:12:24.288Z,5.93
2017-12-22T22:13:24.294Z,5.91
2017-12-22T22:15:17.362Z,6.04
2017-12-22T22:16:17.355Z,5.96
2017-12-22T22:18:10.295Z,5.94
2017-12-22T22:19:10.318Z,5.97
2017-12-22T22:21:03.286Z,5.97
2017-12-22T22:22:03.248Z,6.04
2017-12-22T22:23:56.236Z,6.06
2017-12-22T22:24:56.252Z,6.04
2017-12-22T22:26:49.082Z,6.03
2017-12-22T22:27:49.079Z,5.96
2017-12-22T22:29:41.976Z,6.04
2017-12-22T22:30:41.988Z,6.04
2017-12-22T22:32:34.933Z,6.04
2017-12-22T22:33:34.915Z,6.03
2017-12-22T22:38:35.537Z,6.03
2017-12-22T22:39:32.480Z,6.08
2017-12-22T22:41:25.372Z,6.00
2017-12-22T22:42:25.387Z,6.08
2017-12-22T22:44:18.347Z,6.01
2017-12-22T22:45:18.332Z,6.01
2017-12-22T22:47:11.792Z,6.06
2017-12-22T22:48:11.807Z,6.03
2017-12-22T22:50:04.746Z,6.11
2017-12-22T22:51:04.749Z,6.04
2017-12-22T22:52:57.633Z,6.12
2017-12-22T22:53:57.659Z,6.06
2017-12-22T22:55:50.568Z,6.01
2017-12-22T22:56:50.569Z,6.03
2017-12-22T22:58:44.057Z,6.08
2017-12-22T22:59:43.991Z,6.11
2017-12-22T23:01:37.117Z,6.03
2017-12-22T23:02:37.156Z,6.11
2017-12-22T23:04:30.066Z,6.06
2017-12-22T23:05:30.050Z,6.03
2017-12-22T23:07:22.967Z,6.12
2017-12-22T23:08:22.955Z,5.99
2017-12-22T23:10:16.080Z,6.08
2017-12-22T23:11:16.041Z,6.08
2017-12-22T23:13:08.869Z,6.06
2017-12-22T23:14:08.859Z,6.04
2017-12-22T23:16:01.758Z,6.06
2017-12-22T23:17:01.773Z,6.04
2017-12-22T23:18:55.689Z,6.12
2017-12-22T23:19:55.684Z,6.01
2017-12-22T23:21:48.600Z,6.01
2017-12-22T23:22:48.613Z,6.03
2017-12-22T23:24:41.798Z,6.11
2017-12-22T23:25:41.832Z,6.00
2017-12-22T23:27:34.736Z,5.93
2017-12-22T23:28:34.700Z,6.01
2017-12-22T23:30:27.633Z,6.04
2017-12-22T23:31:27.627Z,6.03
2017-12-22T23:33:20.568Z,6.08
2017-12-22T23:34:20.562Z,6.04
2017-12-22T23:36:13.508Z,6.00
2017-12-22T23:37:13.504Z,6.03
2017-12-22T23:39:06.456Z,6.03
2017-12-22T23:40:06.424Z,6.08
2017-12-22T23:41:59.322Z,6.04
2017-12-22T23:42:59.349Z,5.99
2017-12-22T23:44:52.264Z,6.06
2017-12-22T23:45:52.254Z,6.03
2017-12-22T23:47:45.177Z,6.08
2017-12-22T23:48:45.188Z,5.96
2017-12-22T23:50:38.134Z,6.06
2017-12-22T23:51:38.126Z,5.94
2017-12-22T23:53:31.059Z,5.99
2017-12-22T23:54:31.053Z,6.03
2017-12-22T23:56:23.947Z,6.09
2017-12-22T23:57:23.974Z,5.93
2017-12-22T23:59:16.873Z,5.93
